Time;durP1;ratioP1;P1;durP2;ratioP2;P2;SDS_P1;SDS_P2;PMS_P1;PMS_P2;Temp;Humidity;BMP_temperature;BMP_pressure;BME280_temperature;BME280_humidity;BME280_pressure;Samples;Min_cycle;Max_cycle;Signal;HPM_P1;HPM_P2
2022/12/27 00:00:43;;;;;;;1.40;0.73;;;22.10;54.20;;;;;;5053065;28;20039;-66
2022/12/27 00:03:08;;;;;;;1.58;0.80;;;22.10;54.30;;;;;;5060188;28;20491;-66
2022/12/27 00:05:34;;;;;;;1.30;0.80;;;22.10;54.30;;;;;;5049499;28;20067;-66
2022/12/27 00:07:59;;;;;;;1.23;0.80;;;22.10;54.30;;;;;;5051397;28;20025;-66
2022/12/27 00:10:25;;;;;;;1.52;0.73;;;22.10;54.30;;;;;;5046458;28;20021;-66
2022/12/27 00:12:52;;;;;;;1.38;0.82;;;22.10;54.40;;;;;;5042417;28;20025;-66
2022/12/27 00:15:18;;;;;;;1.55;0.80;;;22.00;54.30;;;;;;5047839;28;20082;-66
2022/12/27 00:17:43;;;;;;;2.95;0.90;;;22.00;54.40;;;;;;5049057;28;20435;-67
2022/12/27 00:20:09;;;;;;;1.85;0.90;;;22.00;54.40;;;;;;5046525;28;20029;-66
2022/12/27 00:22:35;;;;;;;1.20;0.70;;;22.00;54.40;;;;;;5051707;28;20041;-66
2022/12/27 00:25:01;;;;;;;0.90;0.60;;;21.90;54.40;;;;;;5049441;28;20111;-66
2022/12/27 00:27:26;;;;;;;1.08;0.80;;;21.90;54.40;;;;;;5046266;28;20045;-67
2022/12/27 00:29:52;;;;;;;1.42;0.80;;;21.90;54.50;;;;;;5034509;28;20104;-66
2022/12/27 00:32:17;;;;;;;2.05;0.80;;;21.90;54.50;;;;;;5043968;28;20028;-68
2022/12/27 00:34:43;;;;;;;1.70;0.70;;;21.80;54.50;;;;;;5046474;28;20057;-67
2022/12/27 00:37:08;;;;;;;1.45;0.95;;;21.80;54.50;;;;;;5058116;28;20029;-66
2022/12/27 00:39:34;;;;;;;1.17;0.60;;;21.80;54.50;;;;;;5056270;28;20072;-67
2022/12/27 00:42:00;;;;;;;1.00;0.70;;;21.80;54.50;;;;;;5046408;28;20025;-67
2022/12/27 00:44:25;;;;;;;1.48;0.80;;;21.70;54.50;;;;;;5050981;28;20075;-66
2022/12/27 00:46:51;;;;;;;1.00;0.80;;;21.80;54.60;;;;;;5047431;28;20385;-66
2022/12/27 00:49:16;;;;;;;2.45;0.80;;;21.70;54.60;;;;;;5055283;28;20028;-66
2022/12/27 00:51:42;;;;;;;1.45;0.80;;;21.70;54.60;;;;;;5057685;28;20024;-66
2022/12/27 00:54:08;;;;;;;1.23;0.70;;;21.70;54.60;;;;;;5051333;28;20029;-66
2022/12/27 00:56:33;;;;;;;1.33;0.77;;;21.70;54.70;;;;;;5050985;28;20025;-66
2022/12/27 00:59:01;;;;;;;0.70;0.68;;;21.70;54.70;;;;;;5041824;28;20104;-66
2022/12/27 01:01:32;;;;;;;0.93;0.68;;;21.60;54.70;;;;;;5056469;28;20020;-66
2022/12/27 01:04:01;;;;;;;0.98;0.80;;;21.60;54.70;;;;;;5052358;28;20090;-66
2022/12/27 01:06:28;;;;;;;1.13;0.80;;;21.60;54.70;;;;;;5049942;28;20017;-66
2022/12/27 01:08:55;;;;;;;1.00;0.70;;;21.60;54.80;;;;;;5049031;28;20034;-67
2022/12/27 01:11:21;;;;;;;1.23;0.70;;;21.50;54.70;;;;;;5055769;28;20031;-66
2022/12/27 01:13:47;;;;;;;1.08;0.68;;;21.50;54.80;;;;;;5053334;28;20072;-68
2022/12/27 01:16:19;;;;;;;1.90;0.70;;;21.50;55.30;;;;;;5051620;28;20056;-66
2022/12/27 01:18:45;;;;;;;0.95;0.60;;;21.50;54.80;;;;;;5060685;28;20392;-66
2022/12/27 01:21:13;;;;;;;2.42;0.90;;;21.50;54.90;;;;;;5047930;28;20104;-66
2022/12/27 01:23:39;;;;;;;2.00;1.00;;;21.50;54.90;;;;;;5046539;28;20096;-66
2022/12/27 01:26:09;;;;;;;0.60;0.60;;;21.50;54.90;;;;;;5050312;28;20024;-67
2022/12/27 01:28:35;;;;;;;1.17;0.70;;;21.40;54.90;;;;;;5042980;28;20484;-66
2022/12/27 01:31:05;;;;;;;0.98;0.60;;;21.40;54.90;;;;;;5047453;28;20028;-67
2022/12/27 01:33:31;;;;;;;0.73;0.60;;;21.40;55.00;;;;;;5048797;28;20036;-66
2022/12/27 01:35:57;;;;;;;0.60;0.60;;;21.40;55.00;;;;;;5042329;28;20033;-67
2022/12/27 01:38:22;;;;;;;0.70;0.60;;;21.40;55.00;;;;;;5034713;28;20024;-66
2022/12/27 01:40:48;;;;;;;0.75;0.50;;;21.40;55.10;;;;;;5053671;28;20389;-66
2022/12/27 01:43:18;;;;;;;0.68;0.50;;;21.30;55.00;;;;;;5060555;28;20024;-66
2022/12/27 01:45:45;;;;;;;0.65;0.50;;;21.30;55.00;;;;;;5045126;28;20022;-66
2022/12/27 01:48:18;;;;;;;0.60;0.60;;;21.30;55.10;;;;;;5050386;28;20060;-66
2022/12/27 01:50:52;;;;;;;0.93;0.60;;;21.30;55.10;;;;;;5032072;28;20060;-66
2022/12/27 01:53:22;;;;;;;1.35;0.70;;;21.30;55.10;;;;;;5038260;28;20392;-66
2022/12/27 01:56:03;;;;;;;0.45;0.45;;;21.30;55.10;;;;;;5043827;28;20018;-66
2022/12/27 01:58:40;;;;;;;1.13;0.60;;;21.30;55.10;;;;;;5043114;28;20465;-66
2022/12/27 02:01:16;;;;;;;0.70;0.60;;;21.30;55.20;;;;;;5051419;28;20021;-66
2022/12/27 02:03:51;;;;;;;0.70;0.60;;;21.20;55.10;;;;;;5042040;28;20115;-66
2022/12/27 02:06:18;;;;;;;1.02;0.68;;;21.20;55.10;;;;;;5046070;28;20546;-67
2022/12/27 02:08:59;;;;;;;1.25;0.70;;;21.20;55.20;;;;;;5055120;28;20017;-66
2022/12/27 02:14:16;;;;;;;0.63;0.50;;;21.20;55.30;;;;;;5055611;28;20396;-66
2022/12/27 02:16:42;;;;;;;1.17;0.50;;;21.20;55.30;;;;;;5055119;28;20259;-66
2022/12/27 02:19:36;;;;;;;0.80;0.52;;;21.10;55.20;;;;;;5056065;28;20497;-66
2022/12/27 02:22:20;;;;;;;0.70;0.50;;;21.10;55.20;;;;;;5032056;28;20120;-66
2022/12/27 02:25:20;;;;;;;0.70;0.50;;;21.10;55.30;;;;;;5058768;28;20048;-66
2022/12/27 02:27:45;;;;;;;0.75;0.50;;;21.10;55.30;;;;;;5051886;28;20037;-65
2022/12/27 02:30:12;;;;;;;0.45;0.45;;;21.10;55.30;;;;;;5055541;28;20368;-66
2022/12/27 02:32:58;;;;;;;0.93;0.60;;;21.10;55.30;;;;;;5053342;28;20083;-66
2022/12/27 02:35:36;;;;;;;1.05;0.65;;;21.10;55.40;;;;;;5049276;28;20078;-67
2022/12/27 02:38:11;;;;;;;0.55;0.50;;;21.10;55.40;;;;;;5050637;28;20041;-66
2022/12/27 02:55:21;;;;;;;0.90;0.57;;;21.00;55.50;;;;;;5060097;28;20036;-65
2022/12/27 02:57:58;;;;;;;0.40;0.40;;;20.90;55.40;;;;;;5057513;28;20031;-66
2022/12/27 03:03:37;;;;;;;0.85;0.52;;;20.90;55.50;;;;;;5056419;28;20400;-67
2022/12/27 03:06:39;;;;;;;0.88;0.60;;;20.90;55.50;;;;;;5048592;28;20507;-65
2022/12/27 03:15:54;;;;;;;1.20;0.60;;;20.90;55.50;;;;;;5050744;28;20078;-65
2022/12/27 03:18:55;;;;;;;0.82;0.50;;;20.90;55.50;;;;;;5047245;28;20071;-65
2022/12/27 03:27:30;;;;;;;0.68;0.50;;;20.90;55.60;;;;;;5057887;28;20039;-66
2022/12/27 03:33:11;;;;;;;0.75;0.50;;;20.80;55.60;;;;;;5050139;28;20075;-66
2022/12/27 03:38:54;;;;;;;0.47;0.47;;;20.80;55.60;;;;;;5055543;28;20130;-67
2022/12/27 03:44:23;;;;;;;0.50;0.50;;;20.80;55.60;;;;;;5054759;28;20043;-66
2022/12/27 03:47:19;;;;;;;0.60;0.60;;;20.70;55.60;;;;;;5052297;28;20422;-66
2022/12/27 03:49:54;;;;;;;0.95;0.50;;;20.80;55.70;;;;;;5008277;28;20040;-66
2022/12/27 03:52:42;;;;;;;0.85;0.63;;;20.80;55.60;;;;;;5054670;28;20456;-66
2022/12/27 03:55:10;;;;;;;0.50;0.50;;;20.80;55.60;;;;;;5041067;28;20112;-67
2022/12/27 03:57:36;;;;;;;0.75;0.60;;;20.80;55.70;;;;;;5061271;28;20107;-65
2022/12/27 04:00:04;;;;;;;0.50;0.43;;;20.70;55.60;;;;;;5054833;28;20030;-67
2022/12/27 04:02:29;;;;;;;0.50;0.50;;;20.70;55.60;;;;;;5051599;28;20159;-66
2022/12/27 04:04:55;;;;;;;0.45;0.45;;;20.70;55.60;;;;;;5053630;28;20108;-66
2022/12/27 04:07:21;;;;;;;0.40;0.40;;;20.70;55.60;;;;;;5055658;28;20028;-67
2022/12/27 04:34:38;;;;;;;0.45;0.45;;;20.60;55.70;;;;;;5050524;28;20116;-66
2022/12/27 04:37:04;;;;;;;0.55;0.40;;;20.60;55.70;;;;;;5052880;28;20506;-66
2022/12/27 04:39:31;;;;;;;0.40;0.40;;;20.60;55.70;;;;;;5041612;28;20028;-66
2022/12/27 04:56:05;;;;;;;0.35;0.35;;;20.50;55.80;;;;;;5059277;28;20535;-66
2022/12/27 04:58:31;;;;;;;0.40;0.40;;;20.50;55.70;;;;;;5052112;28;20071;-67
2022/12/27 05:03:47;;;;;;;0.40;0.40;;;20.50;55.80;;;;;;5049527;28;20114;-66
2022/12/27 05:06:12;;;;;;;0.43;0.40;;;20.50;55.80;;;;;;5062162;28;20487;-66
2022/12/27 05:14:10;;;;;;;0.45;0.30;;;20.50;55.90;;;;;;5054697;28;20107;-66
2022/12/27 05:16:38;;;;;;;0.63;0.40;;;20.40;55.90;;;;;;5041512;28;21008;-66
2022/12/27 05:19:06;;;;;;;0.30;0.30;;;20.50;56.00;;;;;;5052331;28;20025;-66
2022/12/27 05:21:39;;;;;;;0.30;0.30;;;20.40;55.90;;;;;;5047698;28;20036;-67
2022/12/27 05:26:49;;;;;;;0.40;0.40;;;20.40;55.90;;;;;;5047605;28;20083;-67
2022/12/27 05:29:15;;;;;;;0.40;0.40;;;20.40;56.00;;;;;;5042814;28;20021;-66
2022/12/27 05:31:40;;;;;;;0.40;0.40;;;20.40;56.00;;;;;;5043655;28;20029;-67
2022/12/27 05:34:06;;;;;;;0.73;0.40;;;20.40;56.50;;;;;;5047046;28;20431;-66
2022/12/27 05:36:32;;;;;;;0.30;0.30;;;20.40;56.00;;;;;;5047768;28;20041;-68
2022/12/27 05:38:58;;;;;;;0.63;0.45;;;20.40;56.00;;;;;;5044850;28;20481;-67
2022/12/27 05:41:24;;;;;;;0.32;0.30;;;20.40;56.00;;;;;;5044092;28;20029;-66
2022/12/27 05:43:50;;;;;;;0.30;0.30;;;20.40;56.00;;;;;;5047929;28;20362;-66
2022/12/27 05:46:20;;;;;;;0.38;0.38;;;20.40;56.00;;;;;;5051844;28;20485;-66
2022/12/27 05:48:46;;;;;;;0.50;0.50;;;20.40;56.00;;;;;;5054856;28;20510;-66
2022/12/27 05:51:18;;;;;;;0.30;0.30;;;20.40;56.10;;;;;;5050229;28;20498;-66
2022/12/27 05:53:44;;;;;;;0.43;0.43;;;20.40;56.10;;;;;;5048104;28;20021;-66
2022/12/27 05:56:15;;;;;;;0.52;0.40;;;20.40;56.10;;;;;;5041815;28;20515;-66
2022/12/27 05:58:41;;;;;;;0.35;0.35;;;20.40;56.10;;;;;;5046697;28;20026;-66
2022/12/27 06:01:13;;;;;;;0.65;0.50;;;20.40;56.10;;;;;;5050125;28;20025;-66
2022/12/27 06:03:38;;;;;;;0.40;0.40;;;20.40;56.10;;;;;;5055455;28;20392;-66
2022/12/27 06:06:05;;;;;;;0.30;0.30;;;20.40;56.10;;;;;;5047841;28;20055;-66
2022/12/27 06:08:31;;;;;;;0.40;0.40;;;20.30;56.10;;;;;;5048373;28;20033;-67
2022/12/27 06:11:07;;;;;;;0.80;0.40;;;20.40;56.10;;;;;;5046738;28;20476;-66
2022/12/27 06:13:34;;;;;;;0.35;0.35;;;20.30;56.10;;;;;;5041218;28;20025;-66
2022/12/27 06:16:01;;;;;;;0.75;0.35;;;20.30;56.10;;;;;;5040289;28;20025;-66
2022/12/27 06:18:31;;;;;;;0.40;0.40;;;20.30;56.10;;;;;;5041231;28;20082;-66
2022/12/27 06:21:09;;;;;;;0.40;0.40;;;20.30;56.10;;;;;;5050625;28;20024;-67
2022/12/27 06:23:37;;;;;;;0.73;0.60;;;20.30;56.20;;;;;;5051313;28;20036;-67
2022/12/27 06:26:05;;;;;;;0.40;0.40;;;20.30;56.10;;;;;;5037347;28;20437;-67
2022/12/27 06:28:31;;;;;;;0.40;0.40;;;20.30;56.20;;;;;;5050675;28;20074;-67
2022/12/27 06:30:59;;;;;;;0.43;0.40;;;20.30;56.10;;;;;;5053020;28;20021;-66
2022/12/27 06:33:25;;;;;;;0.38;0.38;;;20.30;56.20;;;;;;5036314;28;20528;-67
2022/12/27 06:35:50;;;;;;;0.30;0.30;;;20.30;56.20;;;;;;5049773;28;20146;-66
2022/12/27 06:38:16;;;;;;;0.40;0.40;;;20.30;56.20;;;;;;5040552;28;20056;-66
2022/12/27 06:40:41;;;;;;;0.40;0.30;;;20.30;56.20;;;;;;5055405;28;20022;-67
2022/12/27 06:43:07;;;;;;;0.40;0.40;;;20.30;56.20;;;;;;5050274;28;20021;-66
2022/12/27 06:45:32;;;;;;;0.43;0.43;;;20.30;56.20;;;;;;5041724;28;20073;-66
2022/12/27 06:47:58;;;;;;;0.20;0.20;;;20.30;56.20;;;;;;5040608;28;20033;-66
2022/12/27 06:50:23;;;;;;;0.30;0.30;;;20.20;56.20;;;;;;5054733;28;20021;-66
2022/12/27 06:52:49;;;;;;;0.40;0.40;;;20.20;56.20;;;;;;5046139;28;20056;-66
2022/12/27 06:55:15;;;;;;;0.30;0.30;;;20.30;56.20;;;;;;5054265;28;20037;-66
2022/12/27 06:57:40;;;;;;;0.68;0.40;;;20.20;56.20;;;;;;5057929;28;20476;-65
2022/12/27 07:00:06;;;;;;;0.30;0.22;;;20.20;56.30;;;;;;5054876;28;20091;-66
2022/12/27 07:02:32;;;;;;;0.35;0.35;;;20.20;56.20;;;;;;5053883;28;20056;-66
2022/12/27 07:04:58;;;;;;;0.32;0.30;;;20.20;56.30;;;;;;5039671;28;20494;-66
2022/12/27 07:07:23;;;;;;;0.30;0.30;;;20.20;56.30;;;;;;5037385;28;20028;-65
2022/12/27 07:09:49;;;;;;;0.30;0.30;;;20.20;56.30;;;;;;5051758;28;20097;-67
2022/12/27 07:12:14;;;;;;;0.47;0.47;;;20.20;56.30;;;;;;5050179;28;20048;-66
2022/12/27 07:14:40;;;;;;;0.30;0.30;;;20.20;56.30;;;;;;5055654;28;20488;-66
2022/12/27 07:17:06;;;;;;;0.40;0.40;;;20.20;56.30;;;;;;5050077;28;20117;-66
2022/12/27 07:19:31;;;;;;;0.38;0.35;;;20.20;56.30;;;;;;5049905;28;20029;-66
2022/12/27 07:21:57;;;;;;;0.40;0.40;;;20.20;56.40;;;;;;5057496;28;20078;-67
2022/12/27 07:24:22;;;;;;;0.68;0.50;;;20.20;56.30;;;;;;5038392;28;20025;-66
2022/12/27 07:26:48;;;;;;;0.75;0.40;;;20.10;56.30;;;;;;5056176;28;20025;-66
2022/12/27 07:29:13;;;;;;;0.30;0.30;;;20.20;56.40;;;;;;5045697;28;20025;-67
2022/12/27 07:31:39;;;;;;;0.50;0.40;;;20.20;56.40;;;;;;5056192;28;20025;-66
2022/12/27 07:34:05;;;;;;;0.47;0.40;;;20.10;56.30;;;;;;5056586;28;20111;-66
2022/12/27 07:36:35;;;;;;;0.43;0.40;;;20.10;56.40;;;;;;5050161;28;20497;-66
2022/12/27 07:39:01;;;;;;;0.45;0.43;;;20.10;56.40;;;;;;5054835;28;20338;-66
2022/12/27 07:41:27;;;;;;;0.40;0.40;;;20.10;56.40;;;;;;5054098;28;20033;-66
2022/12/27 07:43:52;;;;;;;0.40;0.38;;;20.10;56.40;;;;;;5047190;28;20036;-66
2022/12/27 07:46:24;;;;;;;0.30;0.30;;;20.10;56.40;;;;;;5054530;28;20534;-67
2022/12/27 07:48:53;;;;;;;0.43;0.40;;;20.10;56.40;;;;;;5027455;28;20028;-66
2022/12/27 07:51:19;;;;;;;0.40;0.40;;;20.10;56.50;;;;;;5047321;28;20044;-67
2022/12/27 07:53:47;;;;;;;0.40;0.40;;;20.10;56.50;;;;;;5046965;28;20084;-66
2022/12/27 07:56:15;;;;;;;0.30;0.30;;;20.10;56.50;;;;;;5045085;28;20104;-66
2022/12/27 07:58:43;;;;;;;0.30;0.30;;;20.10;56.50;;;;;;5038592;28;20082;-66
2022/12/27 08:01:10;;;;;;;0.80;0.50;;;20.10;56.50;;;;;;5058177;28;20145;-66
2022/12/27 08:03:36;;;;;;;0.32;0.32;;;20.10;56.50;;;;;;5054004;28;20037;-67
2022/12/27 08:06:02;;;;;;;0.47;0.40;;;20.10;56.50;;;;;;5047029;28;20488;-66
2022/12/27 08:08:41;;;;;;;0.30;0.30;;;20.10;56.60;;;;;;5051433;28;20103;-66
2022/12/27 08:11:07;;;;;;;0.57;0.40;;;20.10;56.60;;;;;;5057306;28;20028;-66
2022/12/27 08:13:33;;;;;;;0.30;0.30;;;20.10;56.60;;;;;;5051790;28;20021;-66
2022/12/27 08:15:58;;;;;;;0.38;0.38;;;20.10;56.60;;;;;;5059555;28;20028;-67
2022/12/27 08:18:24;;;;;;;0.30;0.30;;;20.00;56.60;;;;;;5049118;28;20063;-68
2022/12/27 08:20:50;;;;;;;0.47;0.40;;;20.00;56.60;;;;;;5050567;28;20021;-66
2022/12/27 08:23:16;;;;;;;0.50;0.30;;;20.00;56.70;;;;;;5045734;28;20548;-67
2022/12/27 08:25:41;;;;;;;0.75;0.40;;;20.00;56.70;;;;;;5057854;28;20158;-67
2022/12/27 08:28:13;;;;;;;0.40;0.40;;;20.00;56.70;;;;;;5054615;28;20033;-66
2022/12/27 08:30:40;;;;;;;0.30;0.30;;;20.00;56.70;;;;;;5051618;28;20528;-66
2022/12/27 08:33:06;;;;;;;0.70;0.60;;;20.00;56.70;;;;;;5043946;28;20037;-67
2022/12/27 08:35:32;;;;;;;0.50;0.40;;;20.00;56.70;;;;;;5042939;28;20534;-67
2022/12/27 08:38:01;;;;;;;0.43;0.40;;;20.00;56.70;;;;;;5042752;28;20025;-66
2022/12/27 08:40:27;;;;;;;0.63;0.45;;;20.00;56.80;;;;;;5054565;28;20037;-67
2022/12/27 08:42:52;;;;;;;0.70;0.47;;;20.00;56.70;;;;;;5056323;28;20503;-67
2022/12/27 08:45:18;;;;;;;1.17;0.52;;;20.00;56.90;;;;;;5054832;28;20033;-67
2022/12/27 08:47:44;;;;;;;0.68;0.40;;;20.00;57.20;;;;;;5059457;28;20082;-66
2022/12/27 08:50:09;;;;;;;0.52;0.40;;;20.10;57.20;;;;;;5049994;28;20021;-67
2022/12/27 08:52:35;;;;;;;0.60;0.43;;;20.00;57.30;;;;;;5050847;28;20502;-67
2022/12/27 08:55:02;;;;;;;0.47;0.40;;;20.10;57.30;;;;;;5049606;28;20427;-67
2022/12/27 08:57:27;;;;;;;1.13;0.50;;;20.10;57.20;;;;;;5052074;28;20401;-66
2022/12/27 08:59:53;;;;;;;0.40;0.40;;;20.10;57.20;;;;;;5050550;28;20040;-66
2022/12/27 09:02:18;;;;;;;1.00;0.55;;;20.20;57.10;;;;;;5033472;28;20029;-66
2022/12/27 09:04:44;;;;;;;0.52;0.40;;;20.20;57.00;;;;;;5040967;28;20029;-67
2022/12/27 09:07:10;;;;;;;1.02;0.80;;;20.20;57.10;;;;;;5039880;28;20025;-66
2022/12/27 09:09:35;;;;;;;0.43;0.32;;;20.30;56.90;;;;;;5047471;28;20548;-67
2022/12/27 09:12:01;;;;;;;0.60;0.47;;;20.30;56.80;;;;;;5050406;28;20044;-67
2022/12/27 09:14:26;;;;;;;0.77;0.40;;;20.30;57.00;;;;;;5044635;28;20480;-67
2022/12/27 09:16:52;;;;;;;0.40;0.40;;;20.30;56.90;;;;;;5046471;28;20029;-67
2022/12/27 09:19:17;;;;;;;0.43;0.40;;;20.30;56.90;;;;;;5051274;28;20473;-67
2022/12/27 09:21:43;;;;;;;0.60;0.40;;;20.30;56.90;;;;;;5038063;28;20041;-67
2022/12/27 09:24:13;;;;;;;0.63;0.45;;;20.30;56.80;;;;;;5050212;28;20100;-67
2022/12/27 09:26:39;;;;;;;0.30;0.30;;;20.30;56.80;;;;;;5048236;28;20027;-66
2022/12/27 09:29:05;;;;;;;0.60;0.40;;;20.30;56.80;;;;;;5044151;28;20401;-67
2022/12/27 09:31:31;;;;;;;0.40;0.40;;;20.20;56.80;;;;;;5040909;28;20021;-67
2022/12/27 09:33:57;;;;;;;0.40;0.40;;;20.30;56.80;;;;;;5043401;28;20025;-67
2022/12/27 09:36:26;;;;;;;0.57;0.40;;;20.20;56.70;;;;;;5054356;28;20024;-67
2022/12/27 09:38:53;;;;;;;0.45;0.40;;;20.20;56.70;;;;;;5039919;28;20036;-67
2022/12/27 09:41:37;;;;;;;0.98;0.50;;;20.20;56.70;;;;;;5038432;28;20048;-67
2022/12/27 09:44:19;;;;;;;0.60;0.50;;;20.20;56.70;;;;;;5045558;28;20541;-66
2022/12/27 09:46:50;;;;;;;0.57;0.40;;;20.30;56.70;;;;;;5058796;28;20051;-66
2022/12/27 09:49:35;;;;;;;1.35;0.50;;;20.20;56.70;;;;;;5053576;28;20070;-67
2022/12/27 09:52:13;;;;;;;0.95;0.50;;;20.20;56.70;;;;;;5051256;28;20516;-66
2022/12/27 09:54:41;;;;;;;0.52;0.38;;;20.20;56.60;;;;;;5042374;28;20488;-66
2022/12/27 09:57:26;;;;;;;0.88;0.43;;;20.20;56.60;;;;;;5050203;28;20030;-67
2022/12/27 09:59:57;;;;;;;0.35;0.30;;;20.20;56.60;;;;;;5050071;28;20029;-66
2022/12/27 10:02:25;;;;;;;0.43;0.43;;;20.20;56.60;;;;;;5060019;28;20040;-67
2022/12/27 10:04:53;;;;;;;0.68;0.50;;;20.20;56.60;;;;;;5053902;28;20025;-66
2022/12/27 10:07:37;;;;;;;0.40;0.40;;;20.20;56.60;;;;;;5055553;28;20048;-66
2022/12/27 10:10:11;;;;;;;1.00;0.50;;;20.20;56.60;;;;;;5055476;28;20024;-67
2022/12/27 10:13:01;;;;;;;0.70;0.40;;;20.20;56.60;;;;;;5051485;28;20361;-66
2022/12/27 10:15:33;;;;;;;;;;;20.20;56.60;;;;;;5050343;28;20017;-66
2022/12/27 10:18:25;;;;;;;0.52;0.43;;;20.20;56.60;;;;;;5042548;28;19905;-67
2022/12/27 10:21:19;;;;;;;1.08;0.50;;;20.20;56.60;;;;;;5055984;28;20020;-68
2022/12/27 10:23:53;;;;;;;0.30;0.30;;;20.20;56.60;;;;;;5048779;28;20047;-67
2022/12/27 10:26:19;;;;;;;0.68;0.68;;;20.20;56.60;;;;;;5049881;28;20048;-67
2022/12/27 10:28:48;;;;;;;0.55;0.52;;;20.20;56.60;;;;;;5047423;28;20044;-67
2022/12/27 10:31:18;;;;;;;0.60;0.52;;;20.20;56.60;;;;;;5054504;28;20104;-66
2022/12/27 10:33:44;;;;;;;0.52;0.50;;;20.20;56.60;;;;;;5054108;28;20021;-66
2022/12/27 10:36:21;;;;;;;0.52;0.52;;;20.20;56.60;;;;;;5054973;28;20084;-66
2022/12/27 10:38:47;;;;;;;0.98;0.50;;;20.20;56.60;;;;;;5047754;28;20033;-67
2022/12/27 10:41:15;;;;;;;0.70;0.40;;;20.20;56.60;;;;;;5038636;28;20031;-66
2022/12/27 10:43:43;;;;;;;0.87;0.50;;;20.20;56.60;;;;;;5052802;28;20514;-66
2022/12/27 10:46:15;;;;;;;0.90;0.40;;;20.20;56.60;;;;;;5059865;28;20328;-67
2022/12/27 10:48:52;;;;;;;0.52;0.50;;;20.20;56.60;;;;;;5049832;28;20025;-67
2022/12/27 10:51:18;;;;;;;0.73;0.50;;;20.20;56.60;;;;;;5052345;28;20017;-66
2022/12/27 10:53:44;;;;;;;0.82;0.47;;;20.20;56.60;;;;;;5055693;28;20463;-66
2022/12/27 10:56:14;;;;;;;1.20;0.50;;;20.20;56.60;;;;;;5057742;28;20078;-66
2022/12/27 10:58:48;;;;;;;0.68;0.50;;;20.10;56.50;;;;;;5053202;28;20367;-67
2022/12/27 11:01:23;;;;;;;0.50;0.47;;;20.20;56.60;;;;;;5052573;28;20024;-66
2022/12/27 11:03:49;;;;;;;0.30;0.30;;;20.10;56.50;;;;;;5043408;28;20017;-66
2022/12/27 11:06:24;;;;;;;0.60;0.50;;;20.10;56.60;;;;;;5054671;28;20103;-66
2022/12/27 11:08:51;;;;;;;0.63;0.50;;;20.10;56.50;;;;;;5057948;28;20016;-66
2022/12/27 11:11:24;;;;;;;0.40;0.40;;;20.10;56.50;;;;;;5054128;28;20016;-67
2022/12/27 11:13:51;;;;;;;0.60;0.50;;;20.10;56.50;;;;;;5051572;28;20017;-66
2022/12/27 11:16:33;;;;;;;0.30;0.30;;;20.10;56.60;;;;;;5050322;28;20079;-66
2022/12/27 11:19:00;;;;;;;0.40;0.40;;;20.10;56.60;;;;;;5053007;28;20579;-66
2022/12/27 11:21:27;;;;;;;0.40;0.40;;;20.10;56.50;;;;;;5041091;28;20028;-66
2022/12/27 11:23:58;;;;;;;0.68;0.43;;;20.10;56.50;;;;;;5058347;28;20024;-66
2022/12/27 11:26:28;;;;;;;0.40;0.40;;;20.10;56.50;;;;;;5055196;28;20397;-66
2022/12/27 11:28:58;;;;;;;0.90;0.75;;;20.10;56.50;;;;;;5049019;28;20017;-66
2022/12/27 11:31:29;;;;;;;0.63;0.50;;;20.10;56.60;;;;;;5055156;28;20098;-66
2022/12/27 11:34:04;;;;;;;0.80;0.50;;;20.10;56.60;;;;;;5049157;28;20553;-66
2022/12/27 11:36:41;;;;;;;0.40;0.40;;;20.10;56.60;;;;;;5056708;28;20108;-66
2022/12/27 11:39:27;;;;;;;0.90;0.50;;;20.10;56.60;;;;;;5052353;28;20108;-66
2022/12/27 11:41:55;;;;;;;0.68;0.50;;;20.10;56.60;;;;;;5043402;28;20028;-66
2022/12/27 11:44:33;;;;;;;0.50;0.40;;;20.10;56.60;;;;;;5052556;28;20049;-68
2022/12/27 11:47:13;;;;;;;0.63;0.40;;;20.10;56.60;;;;;;5049507;28;20481;-67
2022/12/27 11:49:54;;;;;;;0.63;0.40;;;20.10;56.60;;;;;;5059146;28;20473;-66
2022/12/27 11:52:44;;;;;;;0.50;0.40;;;20.10;56.90;;;;;;5057591;28;20030;-66
2022/12/27 11:55:36;;;;;;;0.85;0.50;;;20.10;56.60;;;;;;5043071;28;20022;-66
2022/12/27 11:58:16;;;;;;;0.80;0.50;;;20.10;56.60;;;;;;5013327;28;20419;-66
2022/12/27 12:00:55;;;;;;;0.90;0.40;;;20.10;56.60;;;;;;5056767;28;20024;-66
2022/12/27 12:03:34;;;;;;;0.75;0.40;;;20.10;56.70;;;;;;5059308;28;20175;-67
2022/12/27 12:06:33;;;;;;;0.93;0.50;;;20.10;56.70;;;;;;5055622;28;20064;-67
2022/12/27 12:09:19;;;;;;;0.75;0.40;;;20.10;56.70;;;;;;5052127;28;20087;-67
2022/12/27 12:11:59;;;;;;;0.68;0.60;;;20.10;56.70;;;;;;5045214;28;20021;-67
2022/12/27 12:14:49;;;;;;;1.23;0.55;;;20.10;56.80;;;;;;5054357;28;20472;-67
2022/12/27 12:17:29;;;;;;;0.60;0.50;;;20.10;56.90;;;;;;5043830;28;20028;-66
2022/12/27 12:20:09;;;;;;;0.60;0.40;;;20.10;57.00;;;;;;5023215;28;20476;-66
2022/12/27 12:22:38;;;;;;;0.90;0.50;;;20.10;57.00;;;;;;5050213;28;20032;-66
2022/12/27 12:25:22;;;;;;;;;;;20.10;57.00;;;;;;5052478;28;20450;-66
2022/12/27 12:28:07;;;;;;;1.08;0.60;;;20.10;57.00;;;;;;5050794;28;20356;-67
2022/12/27 12:31:20;;;;;;;0.68;0.47;;;20.10;57.00;;;;;;5048382;28;20435;-67
2022/12/27 12:34:07;;;;;;;0.95;0.60;;;20.10;57.00;;;;;;4989818;28;20197;-67
2022/12/27 12:37:08;;;;;;;0.63;0.50;;;20.00;56.90;;;;;;5043392;28;20033;-67
2022/12/27 12:39:37;;;;;;;0.98;0.60;;;20.10;57.00;;;;;;4955055;28;20051;-66
2022/12/27 12:42:20;;;;;;;0.60;0.50;;;20.10;57.00;;;;;;5023231;28;20033;-66
2022/12/27 12:45:13;;;;;;;0.65;0.47;;;20.00;56.90;;;;;;5054452;28;20030;-67
2022/12/27 12:48:04;;;;;;;0.60;0.50;;;20.10;57.10;;;;;;5052650;28;20032;-66
2022/12/27 12:50:38;;;;;;;0.75;0.50;;;20.10;57.00;;;;;;5049149;28;20407;-65
2022/12/27 12:53:40;;;;;;;0.55;0.40;;;20.00;57.00;;;;;;5050460;28;20029;-66
2022/12/27 12:56:13;;;;;;;0.90;0.55;;;20.10;57.00;;;;;;5033413;28;20405;-66
2022/12/27 12:58:54;;;;;;;1.13;0.57;;;20.10;57.10;;;;;;5049711;28;20020;-67
2022/12/27 13:01:38;;;;;;;1.15;0.60;;;20.10;57.10;;;;;;5048306;28;20056;-66
2022/12/27 13:04:12;;;;;;;1.77;0.73;;;20.00;57.10;;;;;;5046435;28;20017;-66
2022/12/27 13:07:01;;;;;;;1.10;0.50;;;20.10;57.20;;;;;;5049255;28;20040;-66
2022/12/27 13:09:44;;;;;;;2.25;0.80;;;20.10;57.20;;;;;;5008128;28;20037;-66
2022/12/27 13:12:34;;;;;;;1.80;0.80;;;20.00;57.10;;;;;;5058187;28;20028;-66
2022/12/27 13:15:20;;;;;;;1.98;0.70;;;20.10;57.20;;;;;;5052022;28;20310;-66
2022/12/27 13:18:22;;;;;;;2.72;0.80;;;20.10;57.20;;;;;;5060545;28;20065;-66
2022/12/27 13:21:02;;;;;;;3.40;0.95;;;20.00;57.10;;;;;;5048401;28;20033;-67
2022/12/27 13:23:33;;;;;;;;;;;20.10;57.20;;;;;;5055096;28;20048;-67
2022/12/27 13:26:19;;;;;;;4.65;0.90;;;20.10;57.30;;;;;;5056940;28;19909;-66
2022/12/27 13:29:14;;;;;;;3.22;0.90;;;20.10;57.50;;;;;;5050028;28;20530;-66
2022/12/27 13:32:10;;;;;;;3.17;1.00;;;20.10;57.50;;;;;;5051048;28;20058;-66
2022/12/27 13:34:54;;;;;;;3.78;1.13;;;20.20;57.50;;;;;;5050174;28;20435;-66
2022/12/27 13:38:01;;;;;;;3.33;1.30;;;20.40;57.30;;;;;;5029814;28;20040;-66
2022/12/27 13:40:52;;;;;;;3.00;1.10;;;20.40;57.20;;;;;;4965834;28;20091;-66
2022/12/27 13:43:51;;;;;;;2.70;1.00;;;20.50;57.00;;;;;;4968814;28;20552;-66
2022/12/27 13:46:25;;;;;;;6.07;1.38;;;20.60;56.80;;;;;;5038918;28;20120;-66
2022/12/27 13:49:21;;;;;;;3.75;1.40;;;20.80;56.70;;;;;;5048869;28;20025;-66
2022/12/27 13:51:49;;;;;;;4.15;1.52;;;20.90;56.50;;;;;;5056741;28;20025;-65
2022/12/27 13:54:29;;;;;;;4.10;1.90;;;21.00;56.30;;;;;;5054243;28;20389;-65
2022/12/27 13:57:48;;;;;;;5.80;1.38;;;21.10;56.30;;;;;;5051116;28;20029;-66
2022/12/27 14:00:18;;;;;;;4.35;1.40;;;21.20;55.90;;;;;;4943355;28;20082;-65
2022/12/27 14:03:13;;;;;;;4.93;1.73;;;21.20;55.70;;;;;;4964866;28;20174;-66
2022/12/27 14:06:04;;;;;;;4.40;1.15;;;21.20;55.60;;;;;;5043291;28;20120;-66
2022/12/27 14:08:57;;;;;;;3.47;1.30;;;21.20;55.60;;;;;;5058767;28;20480;-66
2022/12/27 14:11:56;;;;;;;5.07;1.73;;;21.20;55.50;;;;;;5055099;28;20057;-66
2022/12/27 14:14:25;;;;;;;5.35;1.50;;;21.20;55.50;;;;;;5050525;28;20036;-66
2022/12/27 14:17:22;;;;;;;4.07;1.40;;;21.20;55.50;;;;;;5052822;28;20026;-66
2022/12/27 14:20:14;;;;;;;3.63;1.50;;;21.30;55.60;;;;;;5042167;28;20463;-67
2022/12/27 14:22:59;;;;;;;4.18;1.60;;;21.40;55.50;;;;;;5059615;28;20031;-66
2022/12/27 14:25:42;;;;;;;6.32;1.73;;;21.50;55.30;;;;;;5058708;28;20030;-65
2022/12/27 14:28:40;;;;;;;3.22;1.50;;;21.50;55.10;;;;;;5050583;28;20392;-66
2022/12/27 14:31:27;;;;;;;9.05;2.35;;;21.60;55.00;;;;;;5061454;28;20055;-65
2022/12/27 14:34:38;;;;;;;4.07;1.60;;;21.70;54.80;;;;;;5052708;28;20067;-65
2022/12/27 14:37:22;;;;;;;5.68;1.85;;;21.80;54.70;;;;;;5056598;28;20044;-65
2022/12/27 14:40:25;;;;;;;6.22;2.42;;;21.80;54.50;;;;;;5051126;28;20029;-65
2022/12/27 14:43:25;;;;;;;5.75;1.90;;;21.90;54.30;;;;;;5059712;28;20131;-66
2022/12/27 14:46:12;;;;;;;5.97;2.03;;;22.00;54.20;;;;;;5024860;28;20045;-65
2022/12/27 14:48:38;;;;;;;4.80;1.50;;;22.00;54.10;;;;;;5052156;28;20452;-66
2022/12/27 14:51:22;;;;;;;3.50;1.60;;;22.10;53.90;;;;;;5056375;28;20056;-65